createdAt,value
2023-04-11T00:01:51.371Z,12.48
2023-04-11T00:04:39.247Z,15.05
2023-04-11T00:07:25.363Z,12.23
2023-04-11T00:10:10.901Z,12.38
2023-04-11T00:12:56.731Z,13.77
2023-04-11T00:15:43.225Z,12.52
2023-04-11T00:18:31.276Z,14.52
2023-04-11T00:21:17.543Z,17.38
2023-04-11T00:24:03.252Z,14.60
2023-04-11T00:26:48.284Z,14.60
2023-04-11T00:29:34.135Z,13.15
2023-04-11T00:32:19.131Z,13.82
2023-04-11T00:35:05.610Z,11.10
2023-04-11T00:37:56.015Z,12.38
2023-04-11T00:40:41.755Z,12.90
2023-04-11T00:43:27.386Z,11.95
2023-04-11T00:46:13.844Z,11.55
2023-04-11T00:49:20.765Z,10.95
2023-04-11T00:52:13.743Z,10.77
2023-04-11T00:55:02.511Z,13.13
2023-04-11T00:57:48.107Z,12.40
2023-04-11T01:00:35.699Z,12.23
2023-04-11T01:03:24.455Z,13.77
2023-04-11T01:06:13.316Z,11.93
2023-04-11T01:08:58.865Z,14.20
2023-04-11T01:11:44.391Z,12.35
2023-04-11T01:14:29.976Z,12.07
2023-04-11T01:17:15.946Z,11.13
2023-04-11T01:20:02.072Z,12.35
2023-04-11T01:22:49.489Z,12.45
2023-04-11T01:25:34.982Z,13.82
2023-04-11T01:28:21.431Z,12.30
2023-04-11T01:31:08.351Z,13.00
2023-04-11T01:33:54.320Z,13.27
2023-04-11T01:36:41.813Z,12.40
2023-04-11T01:39:27.248Z,13.25
2023-04-11T01:42:13.919Z,11.27
2023-04-11T01:45:00.167Z,11.20
2023-04-11T01:47:45.737Z,12.45
2023-04-11T01:50:31.699Z,10.40
2023-04-11T01:53:17.367Z,12.70
2023-04-11T01:56:04.833Z,11.57
2023-04-11T01:58:50.664Z,11.75
2023-04-11T02:01:36.467Z,11.55
2023-04-11T02:04:21.925Z,11.18
2023-04-11T02:07:07.242Z,12.35
2023-04-11T02:09:52.503Z,13.70
2023-04-11T02:12:37.966Z,11.52
2023-04-11T02:15:25.158Z,12.30
2023-04-11T02:18:11.185Z,10.85
2023-04-11T02:20:56.631Z,10.95
2023-04-11T02:23:42.049Z,10.90
2023-04-11T02:26:27.391Z,12.35
2023-04-11T02:29:14.457Z,14.95
2023-04-11T02:32:00.312Z,13.95
2023-04-11T02:34:45.760Z,11.68
2023-04-11T02:37:31.486Z,13.00
2023-04-11T02:40:16.952Z,12.07
2023-04-11T02:43:02.361Z,13.57
2023-04-11T02:45:49.746Z,12.57
2023-04-11T02:48:35.044Z,11.57
2023-04-11T02:51:20.593Z,12.15
2023-04-11T02:54:06.214Z,13.93
2023-04-11T02:56:55.832Z,12.35
2023-04-11T02:59:41.119Z,12.60
2023-04-11T03:02:26.647Z,12.23
2023-04-11T03:05:11.918Z,11.43
2023-04-11T03:07:58.864Z,13.13
2023-04-11T03:10:46.623Z,13.25
2023-04-11T03:13:33.589Z,11.98
2023-04-11T03:16:19.838Z,12.95
2023-04-11T03:19:05.846Z,13.95
2023-04-11T03:21:51.266Z,13.15
2023-04-11T03:24:39.334Z,12.05
2023-04-11T03:27:24.618Z,12.05
2023-04-11T03:30:15.218Z,11.77
2023-04-11T03:33:04.000Z,16.65
2023-04-11T03:35:50.095Z,12.23
2023-04-11T03:38:35.561Z,11.90
2023-04-11T03:41:20.636Z,11.80
2023-04-11T03:44:06.363Z,13.23
2023-04-11T03:46:51.831Z,12.02
2023-04-11T03:49:37.248Z,13.00
2023-04-11T03:52:23.183Z,13.43
2023-04-11T03:55:09.641Z,14.40
2023-04-11T03:57:54.977Z,13.75
2023-04-11T04:00:41.273Z,14.50
2023-04-11T04:03:28.276Z,12.90
2023-04-11T04:06:14.681Z,12.85
2023-04-11T04:08:59.974Z,13.15
2023-04-11T04:11:50.603Z,12.98
2023-04-11T04:14:39.032Z,13.85
2023-04-11T04:17:24.790Z,13.10
2023-04-11T04:20:11.010Z,14.30
2023-04-11T04:22:58.039Z,11.95
2023-04-11T04:25:52.191Z,14.85
2023-04-11T04:28:45.856Z,11.10
2023-04-11T04:31:33.966Z,13.20
2023-04-11T04:34:24.472Z,13.65
2023-04-11T04:37:09.973Z,11.05
2023-04-11T04:40:09.050Z,11.00
2023-04-11T04:43:02.834Z,15.10
2023-04-11T04:45:56.161Z,15.73
2023-04-11T04:48:46.048Z,14.00
2023-04-11T04:51:31.568Z,11.77
2023-04-11T04:54:19.282Z,15.38
2023-04-11T04:57:04.708Z,14.88
2023-04-11T04:59:50.960Z,13.15
2023-04-11T05:02:37.965Z,14.40
2023-04-11T05:05:23.765Z,15.55
2023-04-11T05:08:09.281Z,14.27
2023-04-11T05:10:56.538Z,15.15
2023-04-11T05:13:42.528Z,13.90
2023-04-11T05:16:28.005Z,16.45
2023-04-11T05:19:14.108Z,17.02
2023-04-11T05:22:03.913Z,15.77
2023-04-11T05:24:52.443Z,17.25
2023-04-11T05:27:37.826Z,13.73
2023-04-11T05:30:23.781Z,17.65
2023-04-11T05:33:09.610Z,15.73
2023-04-11T05:35:54.886Z,16.65
2023-04-11T05:38:41.260Z,17.55
2023-04-11T05:41:26.621Z,17.60
2023-04-11T05:44:11.684Z,19.55
2023-04-11T05:46:57.055Z,16.80
2023-04-11T05:49:42.347Z,21.50
2023-04-11T05:52:27.735Z,21.02
2023-04-11T05:55:13.931Z,16.65
2023-04-11T05:57:59.305Z,16.40
2023-04-11T06:00:45.977Z,16.58
2023-04-11T06:03:31.104Z,16.52
2023-04-11T06:06:16.820Z,20.35
2023-04-11T06:09:02.395Z,15.48
2023-04-11T06:11:47.753Z,15.65
2023-04-11T06:14:33.288Z,13.27
2023-04-11T06:17:18.490Z,16.92
2023-04-11T06:20:06.232Z,18.80
2023-04-11T06:22:51.718Z,13.52
2023-04-11T06:25:37.211Z,19.67
2023-04-11T06:28:22.737Z,18.02
2023-04-11T06:31:09.374Z,17.60
2023-04-11T06:33:55.763Z,15.75
2023-04-11T06:36:42.618Z,17.55
2023-04-11T06:39:27.872Z,20.10
2023-04-11T06:42:13.054Z,16.05
2023-04-11T06:45:02.143Z,20.40
2023-04-11T06:47:47.339Z,14.57
2023-04-11T06:50:32.643Z,18.35
2023-04-11T06:53:17.960Z,17.48
2023-04-11T06:56:03.381Z,16.25
2023-04-11T06:58:48.675Z,14.32
2023-04-11T07:01:37.588Z,17.85
2023-04-11T07:04:23.139Z,16.58
2023-04-11T07:07:08.792Z,16.63
2023-04-11T07:09:53.741Z,16.45
2023-04-11T07:12:39.083Z,17.33
2023-04-11T07:15:24.679Z,20.98
2023-04-11T07:18:09.824Z,17.02
2023-04-11T07:20:55.416Z,15.73
2023-04-11T07:23:41.567Z,15.02
2023-04-11T07:26:31.921Z,14.25
2023-04-11T07:29:17.332Z,14.38
2023-04-11T07:32:03.251Z,13.30
2023-04-11T07:34:52.080Z,16.33
2023-04-11T07:37:38.338Z,16.58
2023-04-11T07:40:24.382Z,14.40
2023-04-11T07:43:09.538Z,20.88
2023-04-11T07:45:56.780Z,15.85
2023-04-11T07:48:43.004Z,15.80
2023-04-11T07:51:28.409Z,16.40
2023-04-11T07:54:13.478Z,16.38
2023-04-11T07:56:59.256Z,15.93
2023-04-11T07:59:49.359Z,14.27
2023-04-11T08:02:35.645Z,15.85
2023-04-11T08:05:24.501Z,17.10
2023-04-11T08:08:10.143Z,12.15
2023-04-11T08:10:55.762Z,13.88
2023-04-11T08:13:41.944Z,23.50
2023-04-11T08:16:34.058Z,13.98
2023-04-11T08:19:24.477Z,16.30
2023-04-11T08:22:10.514Z,18.55
2023-04-11T08:24:56.259Z,16.05
2023-04-11T08:27:41.806Z,11.07
2023-04-11T08:30:27.258Z,11.77
2023-04-11T08:33:12.822Z,15.20
2023-04-11T08:35:58.198Z,8.93
2023-04-11T08:38:43.250Z,7.38
2023-04-11T08:41:35.287Z,10.00
2023-04-11T08:44:21.234Z,11.70
2023-04-11T08:47:07.487Z,7.75
2023-04-11T08:49:56.645Z,8.32
2023-04-11T08:52:45.203Z,6.72
2023-04-11T08:55:31.254Z,15.20
2023-04-11T08:58:17.172Z,7.47
2023-04-11T09:01:26.092Z,8.07
2023-04-11T09:04:13.365Z,9.32
2023-04-11T09:07:01.009Z,8.13
2023-04-11T09:09:46.432Z,7.53
2023-04-11T09:12:31.623Z,6.22
2023-04-11T09:15:31.572Z,6.45
2023-04-11T09:18:38.489Z,7.07
2023-04-11T09:21:24.201Z,7.88
2023-04-11T09:24:16.327Z,7.68
2023-04-11T09:27:18.211Z,6.00
2023-04-11T09:30:05.788Z,7.15
2023-04-11T09:32:54.571Z,11.00
2023-04-11T09:35:40.086Z,11.32
2023-04-11T09:38:34.397Z,10.23
2023-04-11T09:41:33.492Z,8.15
2023-04-11T09:44:18.661Z,7.20
2023-04-11T09:47:04.831Z,5.38
2023-04-11T09:49:50.343Z,9.45
2023-04-11T09:52:39.469Z,11.77
2023-04-11T09:55:25.928Z,9.07
2023-04-11T09:58:14.914Z,8.00
2023-04-11T10:01:01.311Z,7.00
2023-04-11T10:03:50.483Z,9.60
2023-04-11T10:07:07.000Z,10.75
2023-04-11T10:09:52.208Z,14.15
2023-04-11T10:12:37.428Z,12.45
2023-04-11T10:15:22.931Z,8.32
2023-04-11T10:18:10.217Z,10.88
2023-04-11T10:20:55.810Z,17.17
2023-04-11T10:24:09.608Z,7.10
2023-04-11T10:26:57.815Z,6.72
2023-04-11T10:29:48.355Z,5.13
2023-04-11T10:32:35.112Z,8.40
2023-04-11T10:35:24.605Z,8.95
2023-04-11T10:38:43.978Z,6.50
2023-04-11T10:41:32.693Z,11.68
2023-04-11T10:44:21.425Z,8.73
2023-04-11T10:47:17.616Z,5.00
2023-04-11T10:50:03.481Z,6.75
2023-04-11T10:52:48.681Z,5.22
2023-04-11T10:55:54.213Z,5.72
2023-04-11T10:58:39.811Z,6.72
2023-04-11T11:01:37.080Z,8.50
2023-04-11T11:04:32.348Z,8.38
2023-04-11T11:07:17.722Z,5.78
2023-04-11T11:10:03.101Z,6.00
2023-04-11T11:12:53.642Z,7.55
2023-04-11T11:15:39.062Z,5.22
2023-04-11T11:18:24.725Z,7.43
2023-04-11T11:21:14.135Z,8.13
2023-04-11T11:24:05.910Z,5.80
2023-04-11T11:26:51.653Z,11.27
2023-04-11T11:29:38.011Z,5.10
2023-04-11T11:32:30.214Z,7.55
2023-04-11T11:35:16.016Z,5.13
2023-04-11T11:38:01.567Z,8.00
2023-04-11T11:40:48.534Z,4.85
2023-04-11T11:43:35.903Z,4.82
2023-04-11T11:46:23.657Z,5.35
2023-04-11T11:49:11.821Z,3.70
2023-04-11T11:51:57.477Z,5.00
2023-04-11T11:54:46.405Z,2.47
2023-04-11T11:57:35.764Z,8.25
2023-04-11T12:00:26.234Z,5.10
2023-04-11T12:03:11.997Z,7.15
2023-04-11T12:06:00.195Z,5.70
2023-04-11T12:08:50.127Z,5.97
2023-04-11T12:11:44.536Z,3.78
2023-04-11T12:14:29.812Z,4.20
2023-04-11T12:17:15.489Z,3.28
2023-04-11T12:20:01.897Z,4.55
2023-04-11T12:22:47.063Z,5.22
2023-04-11T12:25:32.435Z,3.35
2023-04-11T12:28:17.833Z,2.92
2023-04-11T12:31:03.463Z,1.83
2023-04-11T12:33:49.356Z,3.67
2023-04-11T12:36:36.649Z,3.10
2023-04-11T12:39:22.309Z,5.50
2023-04-11T12:42:11.720Z,4.75
2023-04-11T12:45:01.209Z,3.17
2023-04-11T12:47:47.769Z,4.88
2023-04-11T12:50:32.917Z,5.60
2023-04-11T12:53:18.492Z,3.90
2023-04-11T12:56:04.125Z,5.15
2023-04-11T12:58:49.543Z,4.07
2023-04-11T13:01:46.686Z,7.65
2023-04-11T13:04:36.988Z,4.07
2023-04-11T13:07:25.647Z,1.45
2023-04-11T13:10:17.058Z,4.35
2023-04-11T13:13:11.621Z,5.90
2023-04-11T13:16:02.535Z,9.63
2023-04-11T13:18:49.056Z,2.63
2023-04-11T13:21:34.326Z,4.10
2023-04-11T13:24:19.729Z,2.75
2023-04-11T13:27:05.066Z,2.45
2023-04-11T13:29:50.085Z,8.98
2023-04-11T13:32:36.059Z,3.70
2023-04-11T13:35:21.690Z,2.83
2023-04-11T13:38:07.075Z,1.75
2023-04-11T13:40:52.507Z,5.28
2023-04-11T13:43:37.900Z,5.15
2023-04-11T13:46:23.561Z,1.88
2023-04-11T13:49:09.126Z,1.92
2023-04-11T13:51:54.755Z,2.65
2023-04-11T13:54:40.508Z,3.72
2023-04-11T13:57:25.651Z,1.15
2023-04-11T14:00:11.800Z,1.52
2023-04-11T14:02:57.484Z,2.67
2023-04-11T14:05:45.522Z,3.92
2023-04-11T14:08:30.902Z,3.40
2023-04-11T14:11:16.381Z,2.90
2023-04-11T14:14:01.618Z,2.83
2023-04-11T14:16:47.203Z,2.58
2023-04-11T14:19:32.764Z,3.03
2023-04-11T14:22:18.067Z,4.43
2023-04-11T14:25:05.297Z,5.50
2023-04-11T14:27:50.641Z,2.25
2023-04-11T14:30:36.040Z,2.38
2023-04-11T14:33:21.641Z,5.97
2023-04-11T14:36:07.233Z,4.38
2023-04-11T14:38:52.488Z,3.50
2023-04-11T14:41:37.759Z,6.63
2023-04-11T14:44:23.205Z,5.90
2023-04-11T14:47:08.758Z,9.35
2023-04-11T14:49:56.919Z,6.18
2023-04-11T14:52:42.169Z,5.13
2023-04-11T14:55:27.380Z,3.28
2023-04-11T14:58:12.633Z,4.25
2023-04-11T15:01:00.970Z,4.60
2023-04-11T15:03:46.661Z,6.45
2023-04-11T15:06:33.000Z,5.65
2023-04-11T15:09:23.917Z,3.25
2023-04-11T15:12:09.120Z,3.45
2023-04-11T15:14:54.659Z,4.65
2023-04-11T15:17:46.894Z,3.55
2023-04-11T15:20:34.924Z,6.45
2023-04-11T15:23:21.417Z,4.38
2023-04-11T15:26:10.483Z,5.47
2023-04-11T15:28:57.924Z,2.72
2023-04-11T15:31:43.056Z,3.92
2023-04-11T15:34:28.551Z,5.93
2023-04-11T15:37:14.098Z,5.28
2023-04-11T15:40:05.896Z,2.92
2023-04-11T15:42:51.006Z,5.88
2023-04-11T15:45:37.997Z,4.50
2023-04-11T15:48:23.244Z,2.65
2023-04-11T15:51:09.973Z,5.30
2023-04-11T15:53:55.539Z,5.25
2023-04-11T15:56:40.966Z,4.10
2023-04-11T15:59:26.809Z,4.22
2023-04-11T16:02:12.208Z,3.33
2023-04-11T16:04:57.569Z,5.45
2023-04-11T16:07:46.416Z,5.38
2023-04-11T16:10:32.744Z,3.20
2023-04-11T16:13:18.111Z,4.20
2023-04-11T16:16:03.820Z,3.67
2023-04-11T16:18:49.105Z,6.13
2023-04-11T16:21:34.673Z,3.88
2023-04-11T16:24:19.825Z,6.72
2023-04-11T16:27:05.662Z,4.30
2023-04-11T16:29:52.982Z,7.93
2023-04-11T16:32:38.555Z,6.60
2023-04-11T16:35:24.599Z,5.82
2023-04-11T16:38:10.472Z,4.47
2023-04-11T16:41:00.245Z,5.70
2023-04-11T16:43:45.711Z,3.57
2023-04-11T16:46:34.116Z,3.95
2023-04-11T16:49:46.964Z,4.20
2023-04-11T16:52:36.473Z,7.72
2023-04-11T16:55:30.947Z,10.32
2023-04-11T16:58:19.072Z,8.65
2023-04-11T17:01:10.518Z,8.20
2023-04-11T17:03:56.368Z,5.45
2023-04-11T17:06:42.357Z,8.50
2023-04-11T17:09:27.630Z,8.88
2023-04-11T17:12:13.086Z,8.93
2023-04-11T17:15:01.640Z,8.52
2023-04-11T17:17:46.975Z,11.48
2023-04-11T17:20:32.104Z,7.88
2023-04-11T17:23:17.674Z,9.00
2023-04-11T17:26:04.838Z,8.27
2023-04-11T17:28:49.927Z,8.98
2023-04-11T17:31:35.220Z,6.18
2023-04-11T17:34:20.687Z,4.32
2023-04-11T17:37:06.427Z,7.93
2023-04-11T17:39:51.856Z,9.52
2023-04-11T17:42:37.264Z,8.32
2023-04-11T17:45:23.276Z,7.05
2023-04-11T17:48:09.012Z,7.93
2023-04-11T17:50:55.734Z,3.42
2023-04-11T17:53:41.741Z,9.82
2023-04-11T17:56:27.004Z,4.70
2023-04-11T17:59:13.538Z,10.30
2023-04-11T18:01:59.386Z,8.95
2023-04-11T18:04:45.164Z,5.68
2023-04-11T18:07:30.724Z,4.35
2023-04-11T18:10:21.917Z,5.82
2023-04-11T18:13:07.269Z,7.47
2023-04-11T18:15:52.752Z,6.00
2023-04-11T18:18:37.807Z,7.25
2023-04-11T18:21:23.345Z,6.25
2023-04-11T18:24:08.946Z,6.85
2023-04-11T18:26:54.394Z,7.53
2023-04-11T18:29:39.615Z,7.50
2023-04-11T18:32:27.818Z,6.82
2023-04-11T18:35:15.047Z,7.80
2023-04-11T18:38:00.521Z,8.10
2023-04-11T18:40:46.223Z,6.75
2023-04-11T18:43:31.834Z,6.82
2023-04-11T18:46:17.171Z,7.35
2023-04-11T18:49:04.777Z,12.45
2023-04-11T18:51:52.723Z,10.05
2023-04-11T18:54:38.220Z,7.00
2023-04-11T18:57:26.552Z,6.82
2023-04-11T19:00:18.595Z,7.07
2023-04-11T19:03:05.129Z,7.13
2023-04-11T19:05:51.659Z,10.05
2023-04-11T19:08:37.632Z,6.10
2023-04-11T19:11:22.895Z,7.78
2023-04-11T19:14:09.556Z,7.10
2023-04-11T19:16:56.058Z,7.05
2023-04-11T19:19:43.178Z,6.78
2023-04-11T19:22:28.753Z,5.50
2023-04-11T19:25:14.648Z,8.40
2023-04-11T19:28:41.260Z,9.75
2023-04-11T19:31:32.698Z,3.15
2023-04-11T19:34:17.874Z,6.05
2023-04-11T19:37:03.551Z,3.90
2023-04-11T19:39:49.158Z,4.90
2023-04-11T19:42:37.021Z,3.05
2023-04-11T19:45:22.871Z,5.75
2023-04-11T19:48:08.074Z,5.47
2023-04-11T19:50:53.185Z,7.63
2023-04-11T19:53:38.747Z,5.18
2023-04-11T19:56:23.884Z,6.47
2023-04-11T19:59:09.242Z,10.32
2023-04-11T20:01:54.811Z,9.43
2023-04-11T20:04:41.855Z,6.45
2023-04-11T20:07:27.526Z,7.97
2023-04-11T20:10:14.216Z,8.18
2023-04-11T20:12:59.710Z,9.88
2023-04-11T20:15:45.134Z,4.38
2023-04-11T20:18:30.543Z,6.10
2023-04-11T20:21:15.664Z,4.72
2023-04-11T20:24:02.192Z,6.88
2023-04-11T20:26:47.356Z,5.95
2023-04-11T20:29:32.985Z,5.43
2023-04-11T20:32:18.402Z,9.95
2023-04-11T20:35:04.048Z,5.10
2023-04-11T20:37:50.054Z,6.97
2023-04-11T20:40:35.236Z,6.65
2023-04-11T20:43:20.379Z,6.95
2023-04-11T20:46:08.279Z,7.20
2023-04-11T20:48:54.564Z,4.05
2023-04-11T20:51:39.836Z,5.80
2023-04-11T20:54:26.257Z,3.97
2023-04-11T20:57:11.683Z,6.28
2023-04-11T20:59:58.047Z,3.10
2023-04-11T21:02:45.735Z,3.13
2023-04-11T21:05:31.126Z,4.25
2023-04-11T21:08:16.272Z,3.50
2023-04-11T21:11:01.943Z,5.40
2023-04-11T21:13:49.037Z,5.57
2023-04-11T21:16:34.428Z,4.07
2023-04-11T21:19:19.500Z,3.13
2023-04-11T21:22:05.727Z,7.78
2023-04-11T21:24:51.235Z,7.57
2023-04-11T21:27:36.541Z,6.68
2023-04-11T21:30:22.100Z,5.40
2023-04-11T21:33:07.307Z,9.07
2023-04-11T21:35:54.238Z,2.85
2023-04-11T21:38:39.546Z,6.35
2023-04-11T21:41:24.889Z,4.82
2023-04-11T21:44:10.441Z,30.48
2023-04-11T21:46:55.964Z,7.55
2023-04-11T21:49:41.388Z,4.25
2023-04-11T21:52:26.692Z,3.38
2023-04-11T21:55:12.871Z,6.82
2023-04-11T21:57:58.411Z,5.95
2023-04-11T22:00:43.745Z,2.70
2023-04-11T22:03:29.563Z,5.53
2023-04-11T22:06:14.947Z,4.35
2023-04-11T22:09:01.136Z,3.58
2023-04-11T22:11:46.706Z,6.40
2023-04-11T22:14:31.692Z,3.13
2023-04-11T22:17:17.675Z,5.30
2023-04-11T22:20:06.586Z,8.98
2023-04-11T22:22:52.006Z,4.22
2023-04-11T22:25:37.318Z,3.30
2023-04-11T22:28:22.577Z,6.35
2023-04-11T22:31:09.615Z,4.45
2023-04-11T22:33:55.141Z,6.35
2023-04-11T22:36:40.686Z,7.90
2023-04-11T22:39:25.855Z,6.88
2023-04-11T22:42:11.598Z,6.32
2023-04-11T22:44:56.907Z,5.03
2023-04-11T22:47:45.606Z,3.58
2023-04-11T22:50:37.831Z,3.80
2023-04-11T22:53:24.927Z,5.57
2023-04-11T22:56:10.751Z,7.47
2023-04-11T22:58:55.921Z,4.28
2023-04-11T23:01:41.496Z,6.82
2023-04-11T23:04:26.757Z,5.00
2023-04-11T23:07:12.110Z,5.97
2023-04-11T23:10:01.013Z,7.05
2023-04-11T23:12:47.341Z,11.55
2023-04-11T23:15:32.820Z,8.60
2023-04-11T23:18:18.725Z,9.65
2023-04-11T23:21:04.734Z,5.68
2023-04-11T23:23:50.072Z,5.63
2023-04-11T23:26:35.214Z,4.63
2023-04-11T23:29:20.924Z,5.47
2023-04-11T23:32:07.429Z,5.90
2023-04-11T23:34:52.569Z,6.35
2023-04-11T23:37:38.094Z,9.15
2023-04-11T23:40:23.458Z,8.05
2023-04-11T23:43:09.216Z,5.63
2023-04-11T23:45:54.461Z,5.78
2023-04-11T23:48:39.714Z,4.82
2023-04-11T23:51:25.135Z,5.32
2023-04-11T23:54:10.663Z,6.47
2023-04-11T23:56:57.155Z,5.38
2023-04-11T23:59:42.431Z,7.32
